Time;durP1;ratioP1;P1;durP2;ratioP2;P2;SDS_P1;SDS_P2;PMS_P1;PMS_P2;Temp;Humidity;BMP_temperature;BMP_pressure;BME280_temperature;BME280_humidity;BME280_pressure;Samples;Min_cycle;Max_cycle;Signal;HPM_P1;HPM_P2
2022/06/27 00:02:00;;;;;;;8.65;3.05;;;19.30;99.90;;;;;;4974661;28;25072;-71
2022/06/27 00:04:26;;;;;;;6.68;2.97;;;19.30;99.90;;;;;;4973371;28;25055;-72
2022/06/27 00:06:52;;;;;;;8.38;2.72;;;19.30;99.90;;;;;;4975734;28;25107;-71
2022/06/27 00:09:17;;;;;;;8.38;2.90;;;19.20;99.90;;;;;;4980029;28;25126;-71
2022/06/27 00:11:43;;;;;;;10.55;2.85;;;19.30;99.90;;;;;;4975605;28;25087;-70
2022/06/27 00:14:09;;;;;;;9.32;3.17;;;19.30;99.90;;;;;;4975612;28;25113;-71
2022/06/27 00:16:34;;;;;;;8.65;2.88;;;19.40;99.90;;;;;;4976288;28;25155;-70
2022/06/27 00:19:00;;;;;;;7.20;3.08;;;19.40;99.90;;;;;;4967160;28;25152;-71
2022/06/27 00:21:25;;;;;;;4.53;3.33;;;19.40;99.90;;;;;;4970807;28;25061;-71
2022/06/27 00:23:51;;;;;;;6.43;3.72;;;19.40;99.90;;;;;;4962869;28;25106;-70
2022/06/27 00:26:17;;;;;;;7.18;3.25;;;19.30;99.90;;;;;;4975076;28;25080;-70
2022/06/27 00:28:42;;;;;;;5.93;2.65;;;19.20;99.90;;;;;;4968886;28;25115;-70
2022/06/27 00:31:08;;;;;;;6.03;2.80;;;19.20;99.90;;;;;;4973011;28;25129;-71
2022/06/27 00:33:33;;;;;;;6.05;3.10;;;19.20;99.90;;;;;;4963949;28;25051;-72
2022/06/27 00:35:59;;;;;;;10.52;3.03;;;19.20;99.90;;;;;;4969241;28;25054;-70
2022/06/27 00:38:25;;;;;;;5.72;2.97;;;19.30;99.90;;;;;;4975289;28;25070;-70
2022/06/27 00:40:50;;;;;;;5.93;2.95;;;19.30;99.90;;;;;;4972239;28;25069;-72
2022/06/27 00:43:16;;;;;;;10.95;3.38;;;19.30;99.90;;;;;;4968231;28;25118;-71
2022/06/27 00:45:41;;;;;;;5.55;2.85;;;19.30;99.90;;;;;;4977334;28;25070;-71
2022/06/27 00:48:07;;;;;;;5.20;3.25;;;19.30;99.90;;;;;;4970775;28;25110;-71
2022/06/27 00:50:33;;;;;;;6.75;3.30;;;19.30;99.90;;;;;;4975105;28;25069;-72
2022/06/27 00:52:59;;;;;;;10.57;3.50;;;19.20;99.90;;;;;;4961972;28;25160;-69
2022/06/27 00:55:25;;;;;;;12.10;3.70;;;19.20;99.90;;;;;;4970997;28;25124;-71
2022/06/27 00:57:52;;;;;;;6.45;3.30;;;19.20;99.90;;;;;;4974416;28;25110;-70
2022/06/27 01:00:18;;;;;;;5.40;3.30;;;19.20;99.90;;;;;;4976532;28;25073;-71
2022/06/27 01:02:43;;;;;;;6.82;3.50;;;19.20;99.90;;;;;;4973541;28;25055;-71
2022/06/27 01:05:12;;;;;;;6.50;3.35;;;19.20;99.90;;;;;;4968216;28;25154;-72
2022/06/27 01:07:39;;;;;;;5.20;3.67;;;19.10;99.90;;;;;;4959897;28;25123;-73
2022/06/27 01:10:05;;;;;;;6.07;3.70;;;19.00;99.90;;;;;;4975817;28;25093;-72
2022/06/27 01:12:32;;;;;;;7.25;3.60;;;19.00;99.90;;;;;;4973341;28;25051;-72
2022/06/27 01:14:59;;;;;;;11.90;3.75;;;19.10;99.90;;;;;;4968126;28;25075;-71
2022/06/27 01:17:25;;;;;;;5.65;3.55;;;19.00;99.90;;;;;;4969551;28;25085;-71
2022/06/27 01:19:51;;;;;;;7.70;3.72;;;18.90;99.90;;;;;;4972149;28;25129;-73
2022/06/27 01:22:18;;;;;;;8.25;3.97;;;18.90;99.90;;;;;;4965720;28;25076;-72
2022/06/27 01:24:44;;;;;;;9.60;4.03;;;18.90;99.90;;;;;;4966010;28;25065;-70
2022/06/27 01:27:10;;;;;;;8.05;3.60;;;18.90;99.90;;;;;;4965948;28;25062;-72
2022/06/27 01:29:36;;;;;;;6.00;3.55;;;18.90;99.90;;;;;;4963086;28;25055;-70
2022/06/27 01:32:02;;;;;;;7.72;4.13;;;19.00;99.90;;;;;;4961067;28;25129;-71
2022/06/27 01:34:28;;;;;;;5.78;3.53;;;19.10;99.90;;;;;;4964583;28;25069;-72
2022/06/27 01:36:54;;;;;;;8.77;4.25;;;18.90;99.90;;;;;;4965219;28;25078;-71
2022/06/27 01:39:22;;;;;;;7.28;3.80;;;18.90;99.90;;;;;;4974022;28;25058;-71
2022/06/27 01:41:56;;;;;;;7.65;4.75;;;18.90;99.90;;;;;;4967393;28;25064;-71
2022/06/27 01:44:26;;;;;;;6.35;3.92;;;18.90;99.90;;;;;;4961072;28;25137;-71
2022/06/27 01:47:01;;;;;;;4.82;3.65;;;18.90;99.90;;;;;;4970814;28;25126;-71
2022/06/27 01:49:32;;;;;;;6.05;3.70;;;18.80;99.90;;;;;;4972294;28;25065;-72
2022/06/27 01:52:01;;;;;;;6.57;4.00;;;18.80;99.90;;;;;;4986461;28;25137;-71
2022/06/27 01:54:28;;;;;;;7.00;3.75;;;18.90;99.90;;;;;;4979606;28;25053;-71
2022/06/27 01:56:54;;;;;;;9.65;3.85;;;19.10;99.90;;;;;;4983618;28;25081;-71
2022/06/27 01:59:22;;;;;;;12.60;4.07;;;19.10;99.90;;;;;;4977732;28;25143;-71
2022/06/27 02:01:48;;;;;;;8.85;4.00;;;19.10;99.90;;;;;;4978971;28;25259;-71
2022/06/27 02:04:14;;;;;;;7.28;4.07;;;19.10;99.90;;;;;;4963548;28;25099;-71
2022/06/27 02:06:42;;;;;;;8.45;4.30;;;19.00;99.90;;;;;;4987301;28;25089;-71
2022/06/27 02:09:09;;;;;;;13.07;5.32;;;19.00;99.90;;;;;;4975835;28;25131;-71
2022/06/27 02:11:36;;;;;;;10.82;4.20;;;18.90;99.90;;;;;;4975461;28;25087;-71
2022/06/27 02:14:02;;;;;;;7.85;3.97;;;18.90;99.90;;;;;;4972141;28;25113;-73
2022/06/27 02:16:27;;;;;;;6.57;4.35;;;18.80;99.90;;;;;;4978067;28;25134;-72
2022/06/27 02:18:53;;;;;;;7.72;4.28;;;18.80;99.90;;;;;;4972566;28;25071;-72
2022/06/27 02:21:23;;;;;;;8.75;5.20;;;18.80;99.90;;;;;;4968022;28;25061;-71
2022/06/27 02:23:49;;;;;;;6.55;4.75;;;18.80;99.90;;;;;;4973683;28;25073;-71
2022/06/27 02:26:16;;;;;;;7.68;4.10;;;18.70;99.90;;;;;;4971062;28;25108;-73
2022/06/27 02:28:43;;;;;;;9.68;5.07;;;18.60;99.90;;;;;;4976951;28;25100;-72
2022/06/27 02:31:10;;;;;;;10.38;4.70;;;18.60;99.90;;;;;;4970138;28;25088;-72
2022/06/27 02:33:42;;;;;;;6.97;4.70;;;18.70;99.90;;;;;;4970199;28;25120;-71
2022/06/27 02:36:11;;;;;;;9.65;5.05;;;18.50;99.90;;;;;;4969331;28;25144;-71
2022/06/27 02:38:39;;;;;;;10.45;5.22;;;18.50;99.90;;;;;;4976017;28;25153;-71
2022/06/27 02:41:08;;;;;;;10.18;5.65;;;18.60;99.90;;;;;;4961553;28;25067;-71
2022/06/27 02:43:37;;;;;;;12.50;5.47;;;18.60;99.90;;;;;;4970096;28;25060;-71
2022/06/27 02:46:03;;;;;;;9.60;5.78;;;18.60;99.90;;;;;;4969655;28;25078;-72
2022/06/27 02:48:31;;;;;;;8.10;5.15;;;18.50;99.90;;;;;;4969159;28;25098;-70
2022/06/27 02:51:03;;;;;;;6.47;5.07;;;18.50;99.90;;;;;;4970962;28;25070;-70
2022/06/27 02:53:35;;;;;;;9.48;5.80;;;18.50;99.90;;;;;;4963928;28;25058;-71
2022/06/27 02:56:08;;;;;;;9.00;5.55;;;18.50;99.90;;;;;;4975488;28;25064;-72
2022/06/27 02:58:48;;;;;;;9.05;5.63;;;18.40;99.90;;;;;;4973191;28;25090;-71
2022/06/27 03:01:15;;;;;;;9.02;5.03;;;18.30;99.90;;;;;;4983238;28;25127;-71
2022/06/27 03:03:42;;;;;;;10.15;6.47;;;18.40;99.90;;;;;;4992775;28;25065;-71
2022/06/27 03:06:08;;;;;;;9.73;5.65;;;18.40;99.90;;;;;;4984398;28;25090;-69
2022/06/27 03:08:45;;;;;;;7.85;5.85;;;18.30;99.90;;;;;;4989789;28;25049;-71
2022/06/27 03:11:17;;;;;;;8.73;5.85;;;18.10;99.90;;;;;;4984050;28;25044;-71
2022/06/27 03:13:44;;;;;;;9.07;5.63;;;18.00;99.90;;;;;;4975202;28;25065;-69
2022/06/27 03:16:10;;;;;;;10.10;5.70;;;18.00;99.90;;;;;;4984283;28;25105;-71
2022/06/27 03:18:36;;;;;;;8.02;5.55;;;18.00;99.90;;;;;;4990681;28;25086;-71
2022/06/27 03:21:03;;;;;;;9.45;5.32;;;18.20;99.90;;;;;;4985571;28;25081;-70
2022/06/27 03:23:28;;;;;;;9.60;5.57;;;18.10;99.90;;;;;;5002613;28;25061;-71
2022/06/27 03:25:54;;;;;;;10.05;5.63;;;18.00;99.90;;;;;;4973353;28;25065;-71
2022/06/27 03:28:21;;;;;;;10.57;5.85;;;17.90;99.90;;;;;;4979521;28;25121;-72
2022/06/27 03:30:47;;;;;;;10.02;5.80;;;18.00;99.90;;;;;;4960968;28;25069;-70
2022/06/27 03:33:13;;;;;;;10.85;5.95;;;17.90;99.90;;;;;;4967775;28;25136;-71
2022/06/27 03:35:39;;;;;;;12.20;5.97;;;17.80;99.90;;;;;;4983589;28;25070;-71
2022/06/27 03:38:05;;;;;;;10.90;5.82;;;17.80;99.90;;;;;;4976037;28;25062;-72
2022/06/27 03:40:31;;;;;;;9.38;5.25;;;17.80;99.90;;;;;;4981646;28;25140;-71
2022/06/27 03:42:56;;;;;;;7.07;5.53;;;17.90;99.90;;;;;;4979206;28;25149;-71
2022/06/27 03:45:22;;;;;;;8.70;5.68;;;17.80;99.90;;;;;;4982887;28;25069;-71
2022/06/27 03:47:53;;;;;;;11.38;5.57;;;17.80;99.90;;;;;;4971589;28;25056;-73
2022/06/27 03:50:20;;;;;;;9.67;5.40;;;17.80;99.90;;;;;;4970818;28;25076;-72
2022/06/27 03:52:46;;;;;;;10.73;5.00;;;17.80;99.90;;;;;;4973550;28;25122;-71
2022/06/27 03:55:13;;;;;;;8.25;5.25;;;17.80;99.90;;;;;;4995450;28;25085;-71
2022/06/27 03:57:46;;;;;;;11.43;6.20;;;17.80;99.90;;;;;;4974572;28;25073;-71
2022/06/27 04:00:12;;;;;;;8.68;5.07;;;17.80;99.90;;;;;;4976756;28;25107;-71
2022/06/27 04:02:38;;;;;;;10.07;5.72;;;17.90;99.90;;;;;;4964017;28;25068;-71
2022/06/27 04:05:04;;;;;;;8.07;5.85;;;18.00;99.90;;;;;;4973676;28;25059;-70
2022/06/27 04:07:30;;;;;;;10.88;5.55;;;18.00;99.90;;;;;;4975961;28;25139;-71
2022/06/27 04:09:57;;;;;;;10.63;5.78;;;18.00;99.90;;;;;;4976015;28;25082;-70
2022/06/27 04:12:23;;;;;;;6.47;5.03;;;18.20;99.90;;;;;;4981226;28;25068;-71
2022/06/27 04:14:48;;;;;;;11.75;6.00;;;18.30;99.90;;;;;;5000611;28;25096;-71
2022/06/27 04:17:14;;;;;;;8.50;5.70;;;18.40;99.90;;;;;;4973643;28;25141;-71
2022/06/27 04:19:40;;;;;;;8.93;5.25;;;18.40;99.90;;;;;;4987360;28;25154;-72
2022/06/27 04:22:06;;;;;;;13.40;5.85;;;18.40;99.90;;;;;;4984271;28;25073;-72
2022/06/27 04:24:31;;;;;;;11.35;6.45;;;18.40;99.90;;;;;;4978250;28;25057;-71
2022/06/27 04:26:57;;;;;;;7.45;5.68;;;18.50;99.90;;;;;;4980939;28;25061;-70
2022/06/27 04:29:23;;;;;;;9.05;5.82;;;18.60;99.90;;;;;;4971940;28;25055;-71
2022/06/27 04:31:49;;;;;;;9.68;6.20;;;18.70;99.90;;;;;;4979125;28;25067;-72
2022/06/27 04:34:15;;;;;;;9.75;5.72;;;18.60;99.90;;;;;;4969318;28;25083;-71
2022/06/27 04:36:41;;;;;;;10.93;6.97;;;18.70;99.90;;;;;;4968915;28;25058;-71
2022/06/27 04:39:08;;;;;;;11.70;5.85;;;18.70;99.90;;;;;;4976634;28;25098;-71
2022/06/27 04:41:34;;;;;;;8.32;6.10;;;18.60;99.90;;;;;;4969252;28;25053;-72
2022/06/27 04:44:00;;;;;;;11.85;6.15;;;18.60;99.90;;;;;;4975576;28;25105;-70
2022/06/27 04:46:25;;;;;;;10.63;5.57;;;18.60;99.90;;;;;;4968841;28;25149;-72
2022/06/27 04:48:51;;;;;;;7.40;6.30;;;18.60;99.90;;;;;;4974379;28;25052;-71
2022/06/27 04:51:17;;;;;;;9.70;6.47;;;18.70;99.90;;;;;;4970094;28;25100;-70
2022/06/27 04:53:44;;;;;;;8.93;5.93;;;18.80;99.90;;;;;;4981066;28;25133;-72
2022/06/27 04:56:11;;;;;;;8.32;6.28;;;18.80;99.90;;;;;;4983351;28;25133;-71
2022/06/27 04:58:37;;;;;;;8.25;6.00;;;18.60;99.90;;;;;;4974104;28;25110;-72
2022/06/27 05:01:03;;;;;;;7.78;5.72;;;18.50;99.90;;;;;;4976120;28;25077;-70
2022/06/27 05:03:29;;;;;;;8.68;6.57;;;18.40;99.90;;;;;;4973142;28;25095;-71
2022/06/27 05:05:54;;;;;;;9.77;7.03;;;18.40;99.90;;;;;;4978343;28;25088;-71
2022/06/27 05:08:20;;;;;;;9.88;6.47;;;18.40;99.90;;;;;;4980954;28;25071;-71
2022/06/27 05:10:47;;;;;;;12.18;6.47;;;18.40;99.90;;;;;;4984904;28;25087;-71
2022/06/27 05:13:13;;;;;;;9.45;6.28;;;18.40;99.90;;;;;;4971829;28;25067;-72
2022/06/27 05:15:39;;;;;;;11.13;5.88;;;18.50;99.90;;;;;;4970128;28;25165;-72
2022/06/27 05:18:05;;;;;;;8.40;6.10;;;18.50;99.90;;;;;;4967081;28;25056;-71
2022/06/27 05:20:31;;;;;;;8.90;6.53;;;18.60;99.90;;;;;;4973523;28;25063;-69
2022/06/27 05:23:00;;;;;;;9.82;6.82;;;18.70;99.90;;;;;;4968075;28;25061;-71
2022/06/27 05:25:26;;;;;;;12.98;7.20;;;18.70;99.90;;;;;;4968018;28;25057;-70
2022/06/27 05:27:51;;;;;;;11.15;7.40;;;18.70;99.90;;;;;;4959622;28;25125;-71
2022/06/27 05:30:17;;;;;;;9.60;7.88;;;18.80;99.90;;;;;;4966988;28;25139;-71
2022/06/27 05:32:43;;;;;;;15.10;7.90;;;18.80;99.90;;;;;;4964417;28;25114;-71
2022/06/27 05:35:10;;;;;;;12.07;7.85;;;18.80;99.90;;;;;;4966059;28;25053;-71
2022/06/27 05:37:37;;;;;;;10.25;7.65;;;18.90;99.90;;;;;;4962932;28;25117;-70
2022/06/27 05:40:03;;;;;;;12.73;8.77;;;19.00;99.90;;;;;;4977939;28;25090;-71
2022/06/27 05:42:29;;;;;;;16.27;8.95;;;19.00;99.90;;;;;;4969274;28;25092;-72
2022/06/27 05:44:55;;;;;;;12.77;8.63;;;18.90;99.90;;;;;;4970780;28;25127;-71
2022/06/27 05:47:21;;;;;;;12.38;8.73;;;18.90;99.90;;;;;;4962624;28;25087;-72
2022/06/27 05:49:48;;;;;;;15.32;9.20;;;18.90;99.90;;;;;;4968564;28;25145;-72
2022/06/27 05:52:14;;;;;;;15.70;8.77;;;19.00;99.90;;;;;;4969341;28;25177;-71
2022/06/27 05:54:40;;;;;;;10.63;8.90;;;19.00;99.90;;;;;;4969422;28;25139;-73
2022/06/27 05:57:06;;;;;;;16.40;9.70;;;18.90;99.90;;;;;;4972344;28;25131;-71
2022/06/27 05:59:33;;;;;;;14.93;9.48;;;18.90;99.90;;;;;;4966459;28;25061;-71
2022/06/27 06:02:00;;;;;;;11.98;9.85;;;18.90;99.90;;;;;;4967059;28;25093;-71
2022/06/27 06:04:26;;;;;;;17.90;9.55;;;18.90;99.90;;;;;;4963736;28;25096;-72
2022/06/27 06:06:52;;;;;;;13.80;9.50;;;18.90;99.90;;;;;;4962102;28;25078;-71
2022/06/27 06:09:18;;;;;;;12.95;8.80;;;19.00;99.90;;;;;;4977195;28;25072;-71
2022/06/27 06:11:48;;;;;;;15.00;9.57;;;19.00;99.90;;;;;;4975999;28;25100;-71
2022/06/27 06:14:16;;;;;;;11.75;9.35;;;18.90;99.90;;;;;;4970943;28;25109;-70
2022/06/27 06:16:42;;;;;;;13.60;9.52;;;19.00;99.90;;;;;;4974778;28;25067;-72
2022/06/27 06:19:09;;;;;;;12.35;8.88;;;19.10;99.90;;;;;;4971345;28;25082;-71
2022/06/27 06:21:35;;;;;;;15.27;9.25;;;19.20;99.90;;;;;;4958031;28;25105;-72
2022/06/27 06:24:01;;;;;;;13.88;9.50;;;19.40;99.90;;;;;;4969237;28;25067;-70
2022/06/27 06:26:27;;;;;;;20.30;9.73;;;19.40;99.90;;;;;;4970017;28;25061;-71
2022/06/27 06:28:53;;;;;;;15.02;9.70;;;19.50;99.90;;;;;;4983029;28;25080;-71
2022/06/27 06:31:22;;;;;;;17.80;10.65;;;19.40;99.90;;;;;;4980700;28;25065;-71
2022/06/27 06:33:53;;;;;;;14.13;10.50;;;19.50;99.90;;;;;;4991070;28;25055;-72
2022/06/27 06:36:21;;;;;;;11.77;9.48;;;19.40;99.90;;;;;;4978696;28;25143;-72
2022/06/27 06:38:47;;;;;;;14.60;10.65;;;19.40;99.90;;;;;;4981114;28;25134;-71
2022/06/27 06:41:14;;;;;;;10.88;9.38;;;19.20;99.90;;;;;;4973589;28;25135;-73
2022/06/27 06:43:41;;;;;;;16.30;11.43;;;19.20;99.90;;;;;;4970085;28;25063;-72
2022/06/27 06:46:09;;;;;;;20.30;11.35;;;19.10;99.90;;;;;;4968654;28;25337;-72
2022/06/27 06:48:38;;;;;;;15.35;9.70;;;19.10;99.90;;;;;;4965247;28;25064;-72
2022/06/27 06:51:05;;;;;;;15.60;10.38;;;19.20;99.90;;;;;;4977170;28;25072;-71
2022/06/27 06:53:31;;;;;;;18.50;10.75;;;19.20;99.90;;;;;;4975232;28;25124;-71
2022/06/27 06:55:57;;;;;;;14.95;10.43;;;19.00;99.90;;;;;;4962672;28;25064;-71
2022/06/27 06:58:25;;;;;;;16.95;10.65;;;19.10;99.90;;;;;;4980390;28;25489;-73
2022/06/27 07:00:52;;;;;;;17.67;11.77;;;19.30;99.90;;;;;;4984036;28;25175;-71
2022/06/27 07:03:20;;;;;;;17.63;11.43;;;19.30;99.90;;;;;;4980337;28;25054;-71
2022/06/27 07:05:46;;;;;;;22.13;11.82;;;19.30;99.90;;;;;;4971100;28;25136;-70
2022/06/27 07:08:12;;;;;;;14.95;11.98;;;19.40;99.90;;;;;;4974677;28;25150;-72
2022/06/27 07:10:39;;;;;;;13.15;11.05;;;19.30;99.90;;;;;;4979487;28;25128;-71
2022/06/27 07:13:06;;;;;;;18.73;11.90;;;19.40;99.90;;;;;;4981689;28;25074;-72
2022/06/27 07:15:33;;;;;;;19.35;10.52;;;19.30;99.90;;;;;;4983293;28;25096;-72
2022/06/27 07:18:02;;;;;;;15.43;11.07;;;19.40;99.90;;;;;;4982499;28;25065;-72
2022/06/27 07:20:30;;;;;;;17.55;11.73;;;19.50;99.90;;;;;;4976436;28;25056;-72
2022/06/27 07:22:56;;;;;;;20.80;11.93;;;19.50;99.90;;;;;;4991960;28;25072;-71
2022/06/27 07:25:22;;;;;;;15.70;11.15;;;19.60;99.90;;;;;;4976020;28;25077;-71
2022/06/27 07:27:49;;;;;;;13.07;10.30;;;19.60;99.90;;;;;;4980757;28;25077;-72
2022/06/27 07:30:16;;;;;;;17.80;11.07;;;19.60;99.90;;;;;;4971020;28;25062;-71
2022/06/27 07:32:43;;;;;;;15.10;11.82;;;19.70;99.90;;;;;;4974235;28;25061;-71
2022/06/27 07:35:11;;;;;;;12.60;10.75;;;19.60;99.90;;;;;;4973982;28;25135;-71
2022/06/27 07:37:45;;;;;;;20.77;11.57;;;19.50;99.90;;;;;;4992872;28;25067;-73
2022/06/27 07:40:12;;;;;;;18.77;12.02;;;19.40;99.90;;;;;;4970509;28;25053;-72
2022/06/27 07:42:38;;;;;;;18.58;11.60;;;19.40;99.90;;;;;;4979604;28;25142;-70
2022/06/27 07:45:05;;;;;;;18.65;11.43;;;19.40;99.90;;;;;;4973299;28;25076;-71
2022/06/27 07:47:31;;;;;;;16.23;12.23;;;19.60;99.90;;;;;;4979745;28;25082;-72
2022/06/27 07:49:57;;;;;;;18.98;11.55;;;19.60;99.90;;;;;;4987895;28;25068;-73
2022/06/27 07:52:23;;;;;;;17.52;12.65;;;19.50;99.90;;;;;;4994480;28;25071;-73
2022/06/27 07:54:49;;;;;;;17.38;13.70;;;19.30;99.90;;;;;;4981574;28;25067;-72
2022/06/27 07:57:15;;;;;;;19.33;12.40;;;19.40;99.90;;;;;;4991399;28;25098;-74
2022/06/27 07:59:41;;;;;;;14.13;12.20;;;19.40;99.90;;;;;;4990427;28;25074;-73
2022/06/27 08:02:09;;;;;;;18.30;12.20;;;19.50;99.90;;;;;;4987644;28;25078;-74
2022/06/27 08:04:37;;;;;;;17.23;12.68;;;19.50;99.90;;;;;;5000053;28;25072;-73
2022/06/27 08:07:04;;;;;;;15.15;12.02;;;19.60;99.90;;;;;;4980853;28;25108;-73
2022/06/27 08:09:29;;;;;;;19.38;12.82;;;19.60;99.90;;;;;;4984246;28;25080;-72
2022/06/27 08:11:55;;;;;;;20.40;13.55;;;19.60;99.90;;;;;;4980028;28;25054;-73
2022/06/27 08:14:21;;;;;;;17.25;12.95;;;19.70;99.90;;;;;;4984944;28;25076;-70
2022/06/27 08:16:49;;;;;;;19.10;12.60;;;19.80;99.90;;;;;;4979265;28;25123;-71
2022/06/27 08:19:15;;;;;;;17.27;12.95;;;19.80;99.90;;;;;;4995216;28;25061;-72
2022/06/27 08:21:43;;;;;;;17.00;13.27;;;19.80;99.90;;;;;;4970626;28;25073;-69
2022/06/27 08:24:12;;;;;;;14.85;12.35;;;19.90;99.90;;;;;;4979409;28;25072;-72
2022/06/27 08:26:38;;;;;;;18.27;12.70;;;20.10;99.90;;;;;;4996321;28;25085;-70
2022/06/27 08:29:05;;;;;;;19.90;13.35;;;20.20;99.90;;;;;;4967678;28;25079;-71
2022/06/27 08:31:32;;;;;;;17.90;12.93;;;20.20;99.90;;;;;;4979286;28;25109;-71
2022/06/27 08:34:00;;;;;;;21.55;12.82;;;20.40;99.90;;;;;;4977196;28;25152;-70
2022/06/27 08:36:30;;;;;;;14.60;11.73;;;20.40;99.90;;;;;;4983997;28;25135;-74
2022/06/27 08:39:01;;;;;;;19.48;13.77;;;20.50;99.90;;;;;;4972200;28;25084;-71
2022/06/27 08:41:28;;;;;;;18.63;13.00;;;20.40;99.90;;;;;;4963492;28;25064;-72
2022/06/27 08:44:00;;;;;;;18.63;13.30;;;20.30;99.90;;;;;;4984790;28;25113;-72
2022/06/27 08:46:27;;;;;;;20.75;13.93;;;20.00;99.90;;;;;;4974966;28;25063;-72
2022/06/27 08:48:55;;;;;;;21.70;13.88;;;20.10;99.90;;;;;;4964724;28;25045;-73
2022/06/27 08:51:21;;;;;;;17.55;13.52;;;20.00;99.90;;;;;;4976028;28;25106;-71
2022/06/27 08:53:51;;;;;;;18.98;13.82;;;20.00;99.90;;;;;;4970885;28;25083;-70
2022/06/27 08:56:17;;;;;;;19.65;13.77;;;20.00;99.90;;;;;;4975676;28;25128;-71
2022/06/27 08:58:47;;;;;;;19.90;14.02;;;19.90;99.90;;;;;;4979046;28;25060;-74
2022/06/27 09:01:19;;;;;;;17.05;14.07;;;19.80;99.90;;;;;;4984943;28;25058;-74
2022/06/27 09:04:11;;;;;;;;;;;19.80;99.90;;;;;;4984260;28;25069;-73
2022/06/27 09:06:43;;;;;;;16.75;14.48;;;19.80;99.90;;;;;;4973482;28;25067;-72
2022/06/27 09:09:09;;;;;;;21.83;15.18;;;19.80;99.90;;;;;;4945756;28;25140;-71
2022/06/27 09:11:44;;;;;;;21.45;15.13;;;19.80;99.90;;;;;;4965222;28;25079;-73
2022/06/27 09:14:43;;;;;;;18.52;13.70;;;19.80;99.90;;;;;;4972776;28;25097;-70
2022/06/27 09:17:14;;;;;;;18.00;14.20;;;19.90;99.90;;;;;;4973746;28;25059;-71
2022/06/27 09:19:46;;;;;;;20.00;13.25;;;20.00;99.90;;;;;;4976475;28;25050;-71
2022/06/27 09:22:15;;;;;;;20.20;13.25;;;20.20;99.90;;;;;;4969833;28;25081;-71
2022/06/27 09:25:13;;;;;;;17.27;13.93;;;20.20;99.90;;;;;;4973987;28;25112;-71
2022/06/27 09:27:45;;;;;;;16.05;12.98;;;20.30;99.90;;;;;;4967140;28;25136;-71
2022/06/27 09:30:22;;;;;;;18.30;13.98;;;20.40;99.90;;;;;;4975177;28;25092;-74
2022/06/27 09:32:54;;;;;;;18.25;14.27;;;20.50;99.90;;;;;;4967012;28;25092;-73
2022/06/27 09:35:35;;;;;;;26.53;15.33;;;20.50;99.90;;;;;;4985381;28;25123;-72
2022/06/27 09:38:04;;;;;;;21.40;13.70;;;20.50;99.90;;;;;;4990034;28;25093;-72
2022/06/27 09:40:33;;;;;;;17.77;14.20;;;20.60;99.90;;;;;;4976876;28;25120;-72
2022/06/27 09:42:59;;;;;;;19.45;14.32;;;20.60;99.90;;;;;;4973234;28;25162;-73
2022/06/27 09:45:28;;;;;;;21.02;14.07;;;20.40;99.90;;;;;;4977695;28;25058;-72
2022/06/27 09:48:00;;;;;;;25.92;14.10;;;20.50;99.90;;;;;;4974566;28;25144;-73
2022/06/27 09:50:29;;;;;;;18.92;14.52;;;20.50;99.90;;;;;;4970631;28;25097;-71
2022/06/27 09:52:55;;;;;;;23.25;14.40;;;20.50;99.90;;;;;;4970875;28;25180;-71
2022/06/27 09:55:23;;;;;;;20.42;12.90;;;20.50;99.90;;;;;;4973426;28;25065;-73
2022/06/27 09:57:50;;;;;;;20.73;14.07;;;20.40;99.90;;;;;;4974051;28;25059;-71
2022/06/27 10:00:17;;;;;;;20.33;13.43;;;20.60;99.90;;;;;;4977623;28;25142;-71
2022/06/27 10:02:46;;;;;;;22.38;14.02;;;20.60;99.90;;;;;;4978024;28;25124;-71
2022/06/27 10:05:13;;;;;;;19.27;13.00;;;20.60;99.90;;;;;;4975334;28;25143;-71
2022/06/27 10:07:42;;;;;;;22.90;13.57;;;20.60;99.90;;;;;;4976578;28;25068;-73
2022/06/27 10:10:08;;;;;;;16.55;13.65;;;20.60;99.90;;;;;;4987759;28;25088;-71
2022/06/27 10:12:37;;;;;;;20.63;14.00;;;20.50;99.90;;;;;;4984094;28;25072;-71
2022/06/27 10:15:12;;;;;;;23.27;13.98;;;20.50;99.90;;;;;;4987607;28;25074;-70
2022/06/27 10:17:45;;;;;;;18.67;14.43;;;20.40;99.90;;;;;;4983536;28;25065;-74
2022/06/27 10:20:16;;;;;;;19.98;14.07;;;20.40;99.90;;;;;;4993831;28;25065;-71
2022/06/27 10:22:42;;;;;;;23.27;14.52;;;20.60;99.90;;;;;;4990624;28;25070;-74
2022/06/27 10:25:29;;;;;;;21.63;15.13;;;20.50;99.90;;;;;;4985904;28;25060;-72
2022/06/27 10:28:11;;;;;;;22.65;16.20;;;20.50;99.90;;;;;;4978594;28;25074;-72
2022/06/27 10:30:44;;;;;;;21.55;16.92;;;20.40;99.90;;;;;;4994795;28;25122;-70
2022/06/27 10:33:25;;;;;;;22.67;18.40;;;20.40;99.90;;;;;;4980379;28;25055;-73
2022/06/27 10:35:57;;;;;;;23.27;18.33;;;20.50;99.90;;;;;;4984560;28;25066;-73
2022/06/27 10:38:40;;;;;;;20.33;15.93;;;20.50;99.90;;;;;;4998989;28;25131;-74
2022/06/27 10:41:05;;;;;;;;;;;20.50;99.90;;;;;;4985704;28;25087;-70
2022/06/27 10:43:45;;;;;;;16.45;11.23;;;20.30;99.90;;;;;;4985529;28;24079;-68
2022/06/27 10:46:10;;;;;;;14.77;7.40;;;20.10;99.90;;;;;;5002565;28;25074;-69
2022/06/27 10:48:51;;;;;;;13.10;7.45;;;19.80;99.90;;;;;;4982092;28;25172;-70
2022/06/27 10:51:27;;;;;;;12.07;7.55;;;19.70;99.90;;;;;;4981734;28;25090;-71
2022/06/27 10:54:04;;;;;;;13.15;7.82;;;19.70;99.90;;;;;;4994560;28;25068;-72
2022/06/27 10:56:31;;;;;;;11.52;7.82;;;19.70;99.90;;;;;;4982282;28;25134;-74
2022/06/27 10:59:02;;;;;;;12.50;6.88;;;19.80;99.90;;;;;;4986426;28;25135;-71
2022/06/27 11:01:28;;;;;;;11.07;6.68;;;19.70;99.90;;;;;;4978052;28;25063;-71
2022/06/27 11:03:55;;;;;;;10.32;6.10;;;19.60;99.90;;;;;;4980768;28;25155;-71
2022/06/27 11:06:21;;;;;;;10.48;5.95;;;19.60;99.90;;;;;;4984176;28;25068;-70
2022/06/27 11:08:53;;;;;;;11.52;7.50;;;19.50;99.90;;;;;;4981868;28;25108;-69
2022/06/27 11:11:30;;;;;;;16.25;8.77;;;19.40;99.90;;;;;;4983945;28;25142;-70
2022/06/27 11:14:00;;;;;;;10.75;7.10;;;19.40;99.90;;;;;;4982528;28;25104;-70
2022/06/27 11:16:34;;;;;;;14.23;7.88;;;19.30;99.90;;;;;;4990920;28;25070;-71
2022/06/27 11:20:04;;;;;;;14.07;8.57;;;19.10;99.90;;;;;;4981442;28;25066;-69
2022/06/27 11:21:50;;;;;;;14.48;7.35;;;19.20;99.90;;;;;;4979868;28;25124;-73
2022/06/27 11:24:16;;;;;;;16.27;7.25;;;19.10;99.90;;;;;;4992264;28;25116;-72
2022/06/27 11:26:50;;;;;;;12.45;7.15;;;19.00;99.90;;;;;;4995651;28;25102;-70
2022/06/27 11:32:11;;;;;;;17.92;7.20;;;18.90;99.90;;;;;;4967649;28;25113;-73
2022/06/27 11:34:42;;;;;;;11.48;5.43;;;18.90;99.90;;;;;;4984058;28;25069;-72
2022/06/27 11:37:18;;;;;;;8.13;5.55;;;18.90;99.90;;;;;;4984500;28;25066;-72
2022/06/27 11:40:00;;;;;;;9.38;4.65;;;19.00;99.90;;;;;;4973743;28;25082;-72
2022/06/27 11:42:31;;;;;;;11.45;4.82;;;18.90;99.90;;;;;;4985664;28;25090;-73
2022/06/27 11:45:08;;;;;;;8.85;4.40;;;18.90;99.90;;;;;;4976901;28;25075;-72
2022/06/27 11:47:35;;;;;;;5.30;2.95;;;18.80;99.90;;;;;;4983451;28;25105;-76
2022/06/27 11:50:07;;;;;;;7.47;3.30;;;18.70;99.90;;;;;;4979277;28;25061;-72
2022/06/27 11:52:37;;;;;;;6.43;2.72;;;18.60;99.90;;;;;;4977295;28;25141;-72
2022/06/27 11:55:08;;;;;;;8.45;2.92;;;18.40;99.90;;;;;;4982386;28;25109;-70
2022/06/27 11:57:34;;;;;;;4.10;2.20;;;18.40;99.90;;;;;;4976898;28;25080;-71
2022/06/27 12:00:03;;;;;;;8.23;2.95;;;18.30;99.90;;;;;;4970046;28;25101;-72
2022/06/27 12:02:37;;;;;;;7.40;3.30;;;18.40;99.90;;;;;;4972191;28;25153;-74
2022/06/27 12:05:05;;;;;;;7.28;3.20;;;18.70;99.90;;;;;;4986077;28;25068;-74
2022/06/27 12:07:32;;;;;;;8.88;2.72;;;18.60;99.90;;;;;;4977616;28;25077;-73
2022/06/27 12:09:57;;;;;;;6.50;2.58;;;18.60;99.90;;;;;;4986878;28;25137;-74
2022/06/27 12:12:25;;;;;;;3.90;1.98;;;18.60;99.90;;;;;;4977937;28;25077;-74
2022/06/27 12:14:53;;;;;;;6.70;2.67;;;18.40;99.90;;;;;;4986522;28;25058;-72
2022/06/27 12:17:20;;;;;;;4.88;2.55;;;18.40;99.90;;;;;;4986962;28;25066;-74
2022/06/27 12:19:46;;;;;;;7.03;2.83;;;18.50;99.90;;;;;;4985743;28;25078;-73
2022/06/27 12:22:18;;;;;;;6.05;2.92;;;18.50;99.90;;;;;;4989102;28;25131;-73
2022/06/27 12:24:45;;;;;;;4.65;2.28;;;18.40;99.90;;;;;;4977666;28;25099;-74
2022/06/27 12:27:10;;;;;;;6.05;2.45;;;18.20;99.90;;;;;;4990945;28;25113;-74
2022/06/27 12:29:36;;;;;;;6.25;2.97;;;18.20;99.90;;;;;;4976056;28;25093;-73
2022/06/27 12:32:04;;;;;;;8.63;2.60;;;18.10;99.90;;;;;;4969055;28;25106;-74
2022/06/27 12:34:30;;;;;;;5.85;2.65;;;18.00;99.90;;;;;;4979338;28;25062;-75
2022/06/27 12:36:56;;;;;;;4.93;2.03;;;18.00;99.90;;;;;;4969968;28;25140;-74
2022/06/27 12:39:23;;;;;;;6.38;1.90;;;18.00;99.90;;;;;;4982246;28;25067;-73
2022/06/27 12:41:49;;;;;;;7.80;2.22;;;17.80;99.90;;;;;;4985321;28;25056;-74
2022/06/27 12:44:15;;;;;;;5.50;2.22;;;18.00;99.90;;;;;;4975121;28;25069;-74
2022/06/27 12:46:41;;;;;;;7.55;2.83;;;18.00;99.90;;;;;;4979524;28;25085;-73